Port-au-Prince, Haiti
Current Conditions -  °F | °C
As of 2:00 AM on Sunday 23 Nov 2014 (Local Time) from MDST Reporting Station
Overcast Overcast  
Wind Chill: 72°   Ceiling: 1400
Heat Index: 72°   Visibility: 6mi
Dew Point: 72°   Wind: 6mph
Humidity: 100%   Direction: 100°E
Pressure: 29.97"   Gusts: NA
Location:  18.54°N, 72.34°W
Report Text: MDST 230700Z 10005KT 9999 FEW012CB OVC014 22/22 Q1015 RERA CB/NE/SW
Loading
Personal Weather Stations






























Interactive Weather Map New forecast layout! Learn more

10-Day Weather Forecast

Advertisements
Track Severe Weather on mobile